sensor_id;sensor_type;location;lat;lon;timestamp;pressure;altitude;pressure_sealevel;temperature;humidity
11395;BME280;5753;54.402;10.220;2022-07-30T03:52:33;101763.44;;;29.49;44.14
11395;BME280;5753;54.402;10.220;2022-07-30T03:55:03;101759.72;;;29.53;43.98
11395;BME280;5753;54.402;10.220;2022-07-30T03:57:29;101763.88;;;29.40;44.43
11395;BME280;5753;54.402;10.220;2022-07-30T03:59:56;101763.59;;;29.46;44.14
11395;BME280;5753;54.402;10.220;2022-07-30T04:02:22;101761.44;;;29.35;44.33
11395;BME280;5753;54.402;10.220;2022-07-30T04:04:48;101765.34;;;29.64;43.92
11395;BME280;5753;54.402;10.220;2022-07-30T04:07:15;101765.03;;;29.70;43.89
11395;BME280;5753;54.402;10.220;2022-07-30T04:09:41;101762.00;;;29.78;43.79
11395;BME280;5753;54.402;10.220;2022-07-30T04:12:07;101766.69;;;29.73;43.72
11395;BME280;5753;54.402;10.220;2022-07-30T04:14:39;101754.97;;;29.77;43.57
11395;BME280;5753;54.402;10.220;2022-07-30T04:17:52;101760.16;;;29.80;43.78
11395;BME280;5753;54.402;10.220;2022-07-30T04:20:12;101763.13;;;29.91;43.66
11395;BME280;5753;54.402;10.220;2022-07-30T04:22:39;101764.06;;;29.90;43.46
11395;BME280;5753;54.402;10.220;2022-07-30T04:25:06;101763.13;;;29.91;43.45
11395;BME280;5753;54.402;10.220;2022-07-30T04:27:34;101764.19;;;29.70;43.49
11395;BME280;5753;54.402;10.220;2022-07-30T04:30:01;101756.69;;;29.78;43.60
11395;BME280;5753;54.402;10.220;2022-07-30T04:32:28;101760.34;;;29.75;43.64
11395;BME280;5753;54.402;10.220;2022-07-30T04:34:55;101762.38;;;29.70;43.62
11395;BME280;5753;54.402;10.220;2022-07-30T04:37:23;101769.47;;;29.89;43.54
11395;BME280;5753;54.402;10.220;2022-07-30T04:39:51;101762.81;;;29.97;43.40
11395;BME280;5753;54.402;10.220;2022-07-30T04:42:23;101757.66;;;29.94;43.04
11395;BME280;5753;54.402;10.220;2022-07-30T04:44:50;101761.91;;;30.16;43.32
11395;BME280;5753;54.402;10.220;2022-07-30T04:47:17;101766.63;;;30.28;43.07
11395;BME280;5753;54.402;10.220;2022-07-30T04:49:43;101762.69;;;30.35;42.67
11395;BME280;5753;54.402;10.220;2022-07-30T04:52:11;101759.44;;;30.63;42.33
11395;BME280;5753;54.402;10.220;2022-07-30T04:54:41;101756.63;;;30.66;42.71
11395;BME280;5753;54.402;10.220;2022-07-30T04:57:10;101761.38;;;30.77;42.43
11395;BME280;5753;54.402;10.220;2022-07-30T04:59:37;101765.94;;;30.75;42.11
11395;BME280;5753;54.402;10.220;2022-07-30T05:02:06;101762.63;;;30.69;42.18
11395;BME280;5753;54.402;10.220;2022-07-30T05:04:34;101763.13;;;30.60;42.22
11395;BME280;5753;54.402;10.220;2022-07-30T05:07:02;101761.81;;;30.85;42.22
11395;BME280;5753;54.402;10.220;2022-07-30T05:09:28;101767.16;;;30.85;41.74
11395;BME280;5753;54.402;10.220;2022-07-30T05:11:56;101764.06;;;30.92;41.98
11395;BME280;5753;54.402;10.220;2022-07-30T05:14:23;101763.59;;;31.17;41.74
11395;BME280;5753;54.402;10.220;2022-07-30T05:16:50;101768.84;;;31.19;41.18
11395;BME280;5753;54.402;10.220;2022-07-30T05:19:18;101769.13;;;31.13;41.71
11395;BME280;5753;54.402;10.220;2022-07-30T05:21:44;101772.72;;;31.29;41.34
11395;BME280;5753;54.402;10.220;2022-07-30T05:24:10;101766.34;;;31.16;41.49
11395;BME280;5753;54.402;10.220;2022-07-30T05:26:37;101766.72;;;31.25;40.82
11395;BME280;5753;54.402;10.220;2022-07-30T05:29:03;101769.38;;;31.73;40.41
11395;BME280;5753;54.402;10.220;2022-07-30T05:31:29;101769.72;;;31.97;40.42
11395;BME280;5753;54.402;10.220;2022-07-30T05:33:55;101780.41;;;31.65;40.13
11395;BME280;5753;54.402;10.220;2022-07-30T05:36:21;101787.22;;;31.86;40.51
11395;BME280;5753;54.402;10.220;2022-07-30T05:38:48;101779.44;;;31.98;40.01
11395;BME280;5753;54.402;10.220;2022-07-30T05:41:14;101783.06;;;31.97;39.17
11395;BME280;5753;54.402;10.220;2022-07-30T05:43:41;101777.66;;;31.67;40.14
11395;BME280;5753;54.402;10.220;2022-07-30T05:46:07;101774.59;;;31.74;39.78
11395;BME280;5753;54.402;10.220;2022-07-30T05:48:33;101770.63;;;31.50;39.93
11395;BME280;5753;54.402;10.220;2022-07-30T05:51:03;101772.59;;;31.62;40.05
11395;BME280;5753;54.402;10.220;2022-07-30T05:53:30;101773.91;;;32.01;39.53
11395;BME280;5753;54.402;10.220;2022-07-30T05:55:57;101782.69;;;31.73;39.55
11395;BME280;5753;54.402;10.220;2022-07-30T05:58:23;101787.84;;;32.36;38.87
11395;BME280;5753;54.402;10.220;2022-07-30T06:00:50;101780.81;;;32.35;38.92
11395;BME280;5753;54.402;10.220;2022-07-30T06:03:16;101784.09;;;32.24;38.56
11395;BME280;5753;54.402;10.220;2022-07-30T06:05:42;101770.72;;;32.40;38.65
11395;BME280;5753;54.402;10.220;2022-07-30T06:08:08;101780.88;;;31.73;38.83
11395;BME280;5753;54.402;10.220;2022-07-30T06:10:34;101771.66;;;32.39;38.38
11395;BME280;5753;54.402;10.220;2022-07-30T06:13:00;101769.47;;;32.60;37.85
11395;BME280;5753;54.402;10.220;2022-07-30T06:15:26;101769.28;;;32.34;38.20
11395;BME280;5753;54.402;10.220;2022-07-30T06:17:53;101768.13;;;32.38;37.87
11395;BME280;5753;54.402;10.220;2022-07-30T06:20:19;101768.91;;;32.40;38.15
11395;BME280;5753;54.402;10.220;2022-07-30T06:22:46;101778.75;;;32.68;37.50
11395;BME280;5753;54.402;10.220;2022-07-30T06:25:12;101775.31;;;32.66;37.55
11395;BME280;5753;54.402;10.220;2022-07-30T06:27:39;101777.00;;;33.10;36.34
11395;BME280;5753;54.402;10.220;2022-07-30T06:30:07;101775.03;;;32.85;36.37
11395;BME280;5753;54.402;10.220;2022-07-30T06:32:34;101778.06;;;33.07;35.75
11395;BME280;5753;54.402;10.220;2022-07-30T06:35:00;101776.69;;;32.29;36.71
11395;BME280;5753;54.402;10.220;2022-07-30T06:37:26;101787.97;;;31.88;37.22
11395;BME280;5753;54.402;10.220;2022-07-30T06:39:53;101776.97;;;32.83;35.79
11395;BME280;5753;54.402;10.220;2022-07-30T06:42:19;101777.13;;;32.94;36.30
11395;BME280;5753;54.402;10.220;2022-07-30T06:44:45;101779.56;;;33.26;35.43
11395;BME280;5753;54.402;10.220;2022-07-30T06:47:11;101772.44;;;33.53;35.13
11395;BME280;5753;54.402;10.220;2022-07-30T06:49:38;101773.94;;;33.57;34.19
11395;BME280;5753;54.402;10.220;2022-07-30T06:52:04;101783.50;;;33.88;34.18
11395;BME280;5753;54.402;10.220;2022-07-30T06:54:30;101778.19;;;33.47;34.95
11395;BME280;5753;54.402;10.220;2022-07-30T06:56:57;101778.84;;;32.95;34.56
11395;BME280;5753;54.402;10.220;2022-07-30T06:59:23;101780.16;;;33.16;34.40
11395;BME280;5753;54.402;10.220;2022-07-30T07:01:49;101773.06;;;31.70;36.50
11395;BME280;5753;54.402;10.220;2022-07-30T07:04:18;101769.72;;;32.85;34.66
11395;BME280;5753;54.402;10.220;2022-07-30T07:06:45;101771.19;;;32.32;35.66
11395;BME280;5753;54.402;10.220;2022-07-30T07:09:11;101770.44;;;32.73;34.93
11395;BME280;5753;54.402;10.220;2022-07-30T07:11:37;101776.53;;;33.03;33.72
11395;BME280;5753;54.402;10.220;2022-07-30T07:14:04;101769.47;;;33.16;34.41
11395;BME280;5753;54.402;10.220;2022-07-30T07:16:30;101770.53;;;32.57;34.77
11395;BME280;5753;54.402;10.220;2022-07-30T07:18:56;101766.81;;;33.16;33.13
11395;BME280;5753;54.402;10.220;2022-07-30T07:21:22;101764.84;;;33.74;32.63
11395;BME280;5753;54.402;10.220;2022-07-30T07:23:48;101764.38;;;33.67;31.69
11395;BME280;5753;54.402;10.220;2022-07-30T07:26:15;101763.16;;;33.32;33.45
11395;BME280;5753;54.402;10.220;2022-07-30T07:28:43;101763.63;;;34.05;31.86
11395;BME280;5753;54.402;10.220;2022-07-30T07:31:10;101766.63;;;34.00;31.75
11395;BME280;5753;54.402;10.220;2022-07-30T07:33:36;101759.63;;;34.50;31.37
11395;BME280;5753;54.402;10.220;2022-07-30T07:36:03;101760.94;;;34.05;31.52
11395;BME280;5753;54.402;10.220;2022-07-30T07:38:29;101765.28;;;33.80;32.22
11395;BME280;5753;54.402;10.220;2022-07-30T07:40:55;101754.41;;;33.96;31.03
11395;BME280;5753;54.402;10.220;2022-07-30T07:43:21;101757.75;;;33.60;31.17
11395;BME280;5753;54.402;10.220;2022-07-30T07:45:49;101760.88;;;34.19;30.94
11395;BME280;5753;54.402;10.220;2022-07-30T07:48:17;101761.84;;;33.78;31.79
11395;BME280;5753;54.402;10.220;2022-07-30T07:50:44;101765.00;;;34.63;30.96
11395;BME280;5753;54.402;10.220;2022-07-30T07:53:10;101761.78;;;34.83;30.01
11395;BME280;5753;54.402;10.220;2022-07-30T07:55:37;101765.22;;;34.60;29.84
11395;BME280;5753;54.402;10.220;2022-07-30T07:58:03;101763.63;;;34.05;30.50
11395;BME280;5753;54.402;10.220;2022-07-30T08:00:30;101760.88;;;33.26;31.52
11395;BME280;5753;54.402;10.220;2022-07-30T08:02:56;101763.25;;;34.11;30.44
11395;BME280;5753;54.402;10.220;2022-07-30T08:05:22;101772.00;;;35.15;29.64
11395;BME280;5753;54.402;10.220;2022-07-30T08:07:49;101763.09;;;33.19;31.49
11395;BME280;5753;54.402;10.220;2022-07-30T08:10:15;101760.13;;;33.51;31.11
11395;BME280;5753;54.402;10.220;2022-07-30T08:12:42;101767.31;;;34.80;30.32
11395;BME280;5753;54.402;10.220;2022-07-30T08:15:09;101759.78;;;35.11;28.55
11395;BME280;5753;54.402;10.220;2022-07-30T08:17:45;101759.25;;;35.42;27.61
11395;BME280;5753;54.402;10.220;2022-07-30T08:20:13;101765.91;;;33.71;29.37
11395;BME280;5753;54.402;10.220;2022-07-30T08:22:40;101765.56;;;35.17;27.44
11395;BME280;5753;54.402;10.220;2022-07-30T08:25:06;101761.88;;;36.14;26.63
11395;BME280;5753;54.402;10.220;2022-07-30T08:27:33;101762.00;;;36.12;25.94
11395;BME280;5753;54.402;10.220;2022-07-30T08:30:03;101758.81;;;36.65;25.77
11395;BME280;5753;54.402;10.220;2022-07-30T08:32:30;101755.47;;;37.28;25.80
11395;BME280;5753;54.402;10.220;2022-07-30T08:34:56;101751.38;;;37.77;24.20
11395;BME280;5753;54.402;10.220;2022-07-30T08:37:22;101746.97;;;36.78;24.23
11395;BME280;5753;54.402;10.220;2022-07-30T08:39:48;101750.75;;;36.87;24.68
11395;BME280;5753;54.402;10.220;2022-07-30T08:42:14;101746.97;;;37.87;24.24
11395;BME280;5753;54.402;10.220;2022-07-30T08:44:44;101753.72;;;38.44;23.10
11395;BME280;5753;54.402;10.220;2022-07-30T08:47:15;101753.25;;;37.97;23.22
11395;BME280;5753;54.402;10.220;2022-07-30T08:49:41;101749.31;;;38.01;23.26
11395;BME280;5753;54.402;10.220;2022-07-30T08:52:09;101760.88;;;37.92;23.63
11395;BME280;5753;54.402;10.220;2022-07-30T08:54:36;101760.19;;;37.79;23.60
11395;BME280;5753;54.402;10.220;2022-07-30T08:57:03;101752.44;;;38.48;23.30
11395;BME280;5753;54.402;10.220;2022-07-30T08:59:31;101742.84;;;38.95;22.39
11395;BME280;5753;54.402;10.220;2022-07-30T09:01:57;101747.47;;;39.14;22.19
11395;BME280;5753;54.402;10.220;2022-07-30T09:04:23;101749.97;;;39.75;21.44
11395;BME280;5753;54.402;10.220;2022-07-30T09:06:50;101753.41;;;39.08;22.48
11395;BME280;5753;54.402;10.220;2022-07-30T09:09:16;101751.63;;;40.05;21.90
11395;BME280;5753;54.402;10.220;2022-07-30T09:11:42;101762.06;;;38.41;25.22
11395;BME280;5753;54.402;10.220;2022-07-30T09:14:13;101757.94;;;38.37;25.51
11395;BME280;5753;54.402;10.220;2022-07-30T09:16:40;101767.06;;;38.25;25.92
11395;BME280;5753;54.402;10.220;2022-07-30T09:19:18;101771.41;;;38.37;25.23
11395;BME280;5753;54.402;10.220;2022-07-30T09:21:58;101776.16;;;39.25;24.81
11395;BME280;5753;54.402;10.220;2022-07-30T09:24:25;101778.47;;;38.89;25.07
11395;BME280;5753;54.402;10.220;2022-07-30T09:26:55;101775.81;;;38.38;25.32
11395;BME280;5753;54.402;10.220;2022-07-30T09:29:24;101770.88;;;38.43;25.49
11395;BME280;5753;54.402;10.220;2022-07-30T09:32:04;101780.09;;;38.50;25.59
11395;BME280;5753;54.402;10.220;2022-07-30T09:34:33;101780.53;;;38.76;25.13
11395;BME280;5753;54.402;10.220;2022-07-30T09:37:01;101782.00;;;38.59;25.38
11395;BME280;5753;54.402;10.220;2022-07-30T09:39:39;101772.34;;;39.27;24.38
11395;BME280;5753;54.402;10.220;2022-07-30T09:42:22;101772.88;;;39.21;25.10
11395;BME280;5753;54.402;10.220;2022-07-30T09:44:50;101770.44;;;38.68;26.16
11395;BME280;5753;54.402;10.220;2022-07-30T09:47:36;101776.06;;;39.46;25.01
11395;BME280;5753;54.402;10.220;2022-07-30T09:50:09;101780.09;;;38.71;25.58
11395;BME280;5753;54.402;10.220;2022-07-30T09:52:37;101776.94;;;39.94;24.38
11395;BME280;5753;54.402;10.220;2022-07-30T09:55:04;101772.38;;;39.56;24.07
11395;BME280;5753;54.402;10.220;2022-07-30T09:57:31;101768.66;;;39.28;24.21
11395;BME280;5753;54.402;10.220;2022-07-30T10:00:09;101768.31;;;39.12;24.24
11395;BME280;5753;54.402;10.220;2022-07-30T10:02:40;101765.72;;;39.01;24.79
11395;BME280;5753;54.402;10.220;2022-07-30T10:05:14;101767.25;;;39.44;24.68
11395;BME280;5753;54.402;10.220;2022-07-30T10:10:14;101776.03;;;40.42;23.52
11395;BME280;5753;54.402;10.220;2022-07-30T10:12:40;101775.78;;;40.07;24.04
11395;BME280;5753;54.402;10.220;2022-07-30T10:15:07;101775.81;;;39.87;24.52
11395;BME280;5753;54.402;10.220;2022-07-30T10:17:35;101772.66;;;40.21;24.60
11395;BME280;5753;54.402;10.220;2022-07-30T10:20:06;101776.22;;;39.92;24.31
11395;BME280;5753;54.402;10.220;2022-07-30T10:22:33;101779.03;;;40.39;24.20
11395;BME280;5753;54.402;10.220;2022-07-30T10:25:01;101772.13;;;40.92;23.20
11395;BME280;5753;54.402;10.220;2022-07-30T10:27:27;101782.47;;;39.04;25.00
11395;BME280;5753;54.402;10.220;2022-07-30T10:29:54;101780.25;;;38.28;25.53
11395;BME280;5753;54.402;10.220;2022-07-30T10:32:21;101779.22;;;39.51;24.71
11395;BME280;5753;54.402;10.220;2022-07-30T10:34:47;101781.44;;;40.33;23.51
11395;BME280;5753;54.402;10.220;2022-07-30T10:37:14;101775.44;;;39.13;24.55
11395;BME280;5753;54.402;10.220;2022-07-30T10:39:58;101775.09;;;39.76;23.78
11395;BME280;5753;54.402;10.220;2022-07-30T10:43:21;101780.06;;;39.61;24.29
11395;BME280;5753;54.402;10.220;2022-07-30T10:45:44;101773.94;;;38.90;24.81
11395;BME280;5753;54.402;10.220;2022-07-30T10:48:15;101771.84;;;37.25;26.42
11395;BME280;5753;54.402;10.220;2022-07-30T10:50:54;101777.09;;;38.23;25.63
11395;BME280;5753;54.402;10.220;2022-07-30T10:53:44;101767.63;;;38.28;25.31
11395;BME280;5753;54.402;10.220;2022-07-30T10:56:15;101770.53;;;38.16;25.32
11395;BME280;5753;54.402;10.220;2022-07-30T10:59:00;101773.28;;;38.77;23.71
11395;BME280;5753;54.402;10.220;2022-07-30T11:04:27;101775.22;;;38.95;23.10
11395;BME280;5753;54.402;10.220;2022-07-30T11:09:59;101772.38;;;39.56;22.54
11395;BME280;5753;54.402;10.220;2022-07-30T11:15:13;101768.44;;;38.70;23.13
11395;BME280;5753;54.402;10.220;2022-07-30T11:18:02;101767.53;;;39.41;22.13
11395;BME280;5753;54.402;10.220;2022-07-30T11:20:30;101772.56;;;39.05;22.28
11395;BME280;5753;54.402;10.220;2022-07-30T11:23:34;101777.50;;;39.59;21.71
11395;BME280;5753;54.402;10.220;2022-07-30T11:25:57;101766.09;;;40.14;21.64
11395;BME280;5753;54.402;10.220;2022-07-30T11:28:42;101772.69;;;40.95;20.64
11395;BME280;5753;54.402;10.220;2022-07-30T11:42:35;101774.06;;;40.25;20.47
11395;BME280;5753;54.402;10.220;2022-07-30T11:47:44;101772.69;;;39.82;20.80
11395;BME280;5753;54.402;10.220;2022-07-30T11:50:25;101767.47;;;39.21;21.45
11395;BME280;5753;54.402;10.220;2022-07-30T11:53:03;101771.19;;;38.29;22.27
11395;BME280;5753;54.402;10.220;2022-07-30T11:55:32;101775.22;;;39.55;21.36
11395;BME280;5753;54.402;10.220;2022-07-30T11:58:00;101763.56;;;40.22;21.00
11395;BME280;5753;54.402;10.220;2022-07-30T12:00:34;101770.16;;;41.39;20.13
11395;BME280;5753;54.402;10.220;2022-07-30T12:03:07;101769.69;;;41.26;20.47
11395;BME280;5753;54.402;10.220;2022-07-30T12:05:34;101770.25;;;39.89;21.53
11395;BME280;5753;54.402;10.220;2022-07-30T12:08:00;101769.69;;;41.26;21.09
11395;BME280;5753;54.402;10.220;2022-07-30T12:10:26;101769.53;;;39.58;21.38
11395;BME280;5753;54.402;10.220;2022-07-30T12:12:52;101772.09;;;39.59;22.64
11395;BME280;5753;54.402;10.220;2022-07-30T12:15:33;101767.53;;;38.91;22.59
11395;BME280;5753;54.402;10.220;2022-07-30T12:17:59;101766.91;;;40.34;21.92
11395;BME280;5753;54.402;10.220;2022-07-30T12:20:27;101764.31;;;40.51;22.60
11395;BME280;5753;54.402;10.220;2022-07-30T12:22:53;101764.97;;;39.29;21.90
11395;BME280;5753;54.402;10.220;2022-07-30T12:25:20;101768.72;;;39.77;21.58
11395;BME280;5753;54.402;10.220;2022-07-30T12:27:47;101765.25;;;40.13;20.81
11395;BME280;5753;54.402;10.220;2022-07-30T12:30:15;101765.88;;;39.78;20.82
11395;BME280;5753;54.402;10.220;2022-07-30T12:32:42;101765.00;;;39.68;20.71
11395;BME280;5753;54.402;10.220;2022-07-30T12:35:09;101755.69;;;39.22;20.95
11395;BME280;5753;54.402;10.220;2022-07-30T12:37:35;101754.91;;;39.80;20.61
11395;BME280;5753;54.402;10.220;2022-07-30T12:42:32;101746.75;;;40.28;20.74
11395;BME280;5753;54.402;10.220;2022-07-30T12:44:59;101756.44;;;40.21;21.53
11395;BME280;5753;54.402;10.220;2022-07-30T12:47:27;101762.50;;;40.42;22.19
11395;BME280;5753;54.402;10.220;2022-07-30T12:49:57;101762.72;;;41.23;20.32
11395;BME280;5753;54.402;10.220;2022-07-30T12:52:29;101758.47;;;40.00;21.49
11395;BME280;5753;54.402;10.220;2022-07-30T12:57:25;101750.44;;;40.37;22.02
11395;BME280;5753;54.402;10.220;2022-07-30T13:00:05;101746.50;;;40.12;22.48
11395;BME280;5753;54.402;10.220;2022-07-30T13:02:33;101753.25;;;40.35;22.09
11395;BME280;5753;54.402;10.220;2022-07-30T13:05:00;101750.94;;;39.55;22.54
11395;BME280;5753;54.402;10.220;2022-07-30T13:07:27;101747.25;;;39.75;22.44
11395;BME280;5753;54.402;10.220;2022-07-30T13:10:10;101744.94;;;39.32;22.80
11395;BME280;5753;54.402;10.220;2022-07-30T13:12:37;101743.38;;;39.49;22.49
11395;BME280;5753;54.402;10.220;2022-07-30T13:15:07;101748.34;;;40.11;22.10
11395;BME280;5753;54.402;10.220;2022-07-30T13:17:33;101745.03;;;41.01;21.57
11395;BME280;5753;54.402;10.220;2022-07-30T13:19:59;101738.69;;;39.70;21.96
11395;BME280;5753;54.402;10.220;2022-07-30T13:22:25;101747.78;;;39.88;21.98
11395;BME280;5753;54.402;10.220;2022-07-30T13:24:51;101746.81;;;39.70;22.13
11395;BME280;5753;54.402;10.220;2022-07-30T13:27:17;101741.38;;;40.09;21.77
11395;BME280;5753;54.402;10.220;2022-07-30T13:29:44;101737.78;;;40.18;21.87
11395;BME280;5753;54.402;10.220;2022-07-30T13:32:10;101739.03;;;40.43;22.57
11395;BME280;5753;54.402;10.220;2022-07-30T13:34:36;101745.34;;;39.18;22.72
11395;BME280;5753;54.402;10.220;2022-07-30T13:37:02;101742.09;;;40.57;22.51
11395;BME280;5753;54.402;10.220;2022-07-30T13:39:28;101737.66;;;40.94;21.31
11395;BME280;5753;54.402;10.220;2022-07-30T13:41:54;101740.81;;;41.16;21.19
11395;BME280;5753;54.402;10.220;2022-07-30T13:44:20;101735.09;;;40.18;21.90
11395;BME280;5753;54.402;10.220;2022-07-30T13:46:46;101733.03;;;39.34;22.55
11395;BME280;5753;54.402;10.220;2022-07-30T13:49:12;101731.13;;;39.06;22.97
11395;BME280;5753;54.402;10.220;2022-07-30T13:51:38;101724.63;;;39.38;22.60
11395;BME280;5753;54.402;10.220;2022-07-30T13:54:05;101724.63;;;39.47;22.51
11395;BME280;5753;54.402;10.220;2022-07-30T13:56:32;101730.06;;;39.57;22.44
11395;BME280;5753;54.402;10.220;2022-07-30T13:58:58;101729.72;;;38.71;23.38
11395;BME280;5753;54.402;10.220;2022-07-30T14:01:25;101729.22;;;38.26;24.22
11395;BME280;5753;54.402;10.220;2022-07-30T14:03:51;101722.97;;;38.05;24.03
11395;BME280;5753;54.402;10.220;2022-07-30T14:06:18;101731.34;;;38.84;23.39
11395;BME280;5753;54.402;10.220;2022-07-30T14:08:44;101730.31;;;39.44;22.41
11395;BME280;5753;54.402;10.220;2022-07-30T14:11:10;101736.66;;;38.64;23.56
11395;BME280;5753;54.402;10.220;2022-07-30T14:13:36;101734.13;;;39.22;22.78
11395;BME280;5753;54.402;10.220;2022-07-30T14:16:03;101728.63;;;36.83;25.13
11395;BME280;5753;54.402;10.220;2022-07-30T14:18:29;101726.34;;;37.33;25.09
11395;BME280;5753;54.402;10.220;2022-07-30T14:20:55;101722.09;;;37.63;24.81
11395;BME280;5753;54.402;10.220;2022-07-30T14:23:21;101731.78;;;38.58;24.07
11395;BME280;5753;54.402;10.220;2022-07-30T14:25:47;101717.66;;;39.16;23.38
11395;BME280;5753;54.402;10.220;2022-07-30T14:28:14;101723.41;;;38.92;23.89
11395;BME280;5753;54.402;10.220;2022-07-30T14:30:40;101721.97;;;38.88;23.94
11395;BME280;5753;54.402;10.220;2022-07-30T14:33:06;101723.25;;;38.02;26.00
11395;BME280;5753;54.402;10.220;2022-07-30T14:35:33;101721.91;;;39.18;24.11
11395;BME280;5753;54.402;10.220;2022-07-30T14:37:59;101727.72;;;39.23;23.94
11395;BME280;5753;54.402;10.220;2022-07-30T14:40:25;101727.75;;;39.33;23.46
11395;BME280;5753;54.402;10.220;2022-07-30T14:42:51;101728.16;;;39.09;23.44
11395;BME280;5753;54.402;10.220;2022-07-30T14:45:17;101739.84;;;38.79;23.86
11395;BME280;5753;54.402;10.220;2022-07-30T14:47:43;101735.69;;;38.75;23.85
11395;BME280;5753;54.402;10.220;2022-07-30T14:50:09;101735.72;;;38.54;23.69
11395;BME280;5753;54.402;10.220;2022-07-30T14:52:36;101732.91;;;37.52;24.93
11395;BME280;5753;54.402;10.220;2022-07-30T14:55:05;101726.91;;;38.01;24.41
11395;BME280;5753;54.402;10.220;2022-07-30T14:57:32;101739.50;;;38.72;23.83
11395;BME280;5753;54.402;10.220;2022-07-30T14:59:58;101733.75;;;38.56;23.87
11395;BME280;5753;54.402;10.220;2022-07-30T15:02:24;101735.19;;;38.91;24.12
11395;BME280;5753;54.402;10.220;2022-07-30T15:04:50;101736.81;;;38.42;24.06
11395;BME280;5753;54.402;10.220;2022-07-30T15:07:16;101732.22;;;38.12;24.25
11395;BME280;5753;54.402;10.220;2022-07-30T15:09:43;101727.50;;;38.04;24.06
11395;BME280;5753;54.402;10.220;2022-07-30T15:12:09;101722.84;;;38.06;24.08
11395;BME280;5753;54.402;10.220;2022-07-30T15:14:36;101728.13;;;37.87;24.89
11395;BME280;5753;54.402;10.220;2022-07-30T15:17:03;101728.75;;;37.47;24.33
11395;BME280;5753;54.402;10.220;2022-07-30T15:19:29;101728.56;;;37.17;24.73
11395;BME280;5753;54.402;10.220;2022-07-30T15:21:55;101726.25;;;37.24;24.84
11395;BME280;5753;54.402;10.220;2022-07-30T15:24:21;101727.72;;;37.60;24.73
11395;BME280;5753;54.402;10.220;2022-07-30T15:26:47;101733.44;;;38.50;23.70
11395;BME280;5753;54.402;10.220;2022-07-30T15:29:13;101728.56;;;38.64;23.80
11395;BME280;5753;54.402;10.220;2022-07-30T15:31:39;101738.53;;;38.73;23.42
11395;BME280;5753;54.402;10.220;2022-07-30T15:34:05;101735.13;;;38.41;23.73
11395;BME280;5753;54.402;10.220;2022-07-30T15:36:36;101734.31;;;38.50;23.87
11395;BME280;5753;54.402;10.220;2022-07-30T15:39:04;101743.00;;;39.03;23.57
11395;BME280;5753;54.402;10.220;2022-07-30T15:41:31;101731.22;;;38.95;23.54
11395;BME280;5753;54.402;10.220;2022-07-30T15:43:57;101728.63;;;39.82;23.38
11395;BME280;5753;54.402;10.220;2022-07-30T15:46:23;101730.19;;;41.05;22.51
11395;BME280;5753;54.402;10.220;2022-07-30T15:48:49;101731.03;;;43.88;18.94
11395;BME280;5753;54.402;10.220;2022-07-30T15:51:16;101730.56;;;45.18;18.02
11395;BME280;5753;54.402;10.220;2022-07-30T15:53:42;101728.22;;;48.76;16.36
11395;BME280;5753;54.402;10.220;2022-07-30T15:56:08;101732.94;;;48.95;14.28
11395;BME280;5753;54.402;10.220;2022-07-30T15:58:35;101728.50;;;48.94;14.34
11395;BME280;5753;54.402;10.220;2022-07-30T16:01:02;101725.91;;;48.73;14.47
11395;BME280;5753;54.402;10.220;2022-07-30T16:03:30;101726.28;;;47.66;15.22
11395;BME280;5753;54.402;10.220;2022-07-30T16:05:56;101722.38;;;46.90;15.98
11395;BME280;5753;54.402;10.220;2022-07-30T16:08:22;101721.16;;;47.14;15.90
11395;BME280;5753;54.402;10.220;2022-07-30T16:10:49;101723.50;;;46.81;15.97
11395;BME280;5753;54.402;10.220;2022-07-30T16:13:17;101723.47;;;45.77;16.79
11395;BME280;5753;54.402;10.220;2022-07-30T16:15:43;101725.84;;;44.34;17.81
11395;BME280;5753;54.402;10.220;2022-07-30T16:18:09;101721.19;;;44.11;18.50
11395;BME280;5753;54.402;10.220;2022-07-30T16:20:35;101726.16;;;44.86;17.76
11395;BME280;5753;54.402;10.220;2022-07-30T16:23:02;101725.00;;;45.95;16.61
11395;BME280;5753;54.402;10.220;2022-07-30T16:25:28;101727.56;;;45.96;16.79
11395;BME280;5753;54.402;10.220;2022-07-30T16:27:54;101729.00;;;46.51;16.36
11395;BME280;5753;54.402;10.220;2022-07-30T16:30:20;101723.38;;;45.86;16.47
11395;BME280;5753;54.402;10.220;2022-07-30T16:32:48;101719.56;;;46.24;16.34
11395;BME280;5753;54.402;10.220;2022-07-30T16:35:15;101725.81;;;46.98;15.65
11395;BME280;5753;54.402;10.220;2022-07-30T16:37:41;101718.13;;;48.01;15.31
11395;BME280;5753;54.402;10.220;2022-07-30T16:40:08;101715.72;;;47.84;14.81
11395;BME280;5753;54.402;10.220;2022-07-30T16:42:34;101720.06;;;47.51;14.75
11395;BME280;5753;54.402;10.220;2022-07-30T16:45:00;101721.44;;;45.94;15.91
11395;BME280;5753;54.402;10.220;2022-07-30T16:47:26;101720.06;;;45.98;16.91
11395;BME280;5753;54.402;10.220;2022-07-30T16:49:52;101704.53;;;46.14;15.80
11395;BME280;5753;54.402;10.220;2022-07-30T16:52:18;101709.81;;;46.00;16.40
11395;BME280;5753;54.402;10.220;2022-07-30T16:54:44;101716.44;;;46.86;15.57
11395;BME280;5753;54.402;10.220;2022-07-30T16:57:10;101708.34;;;46.78;15.13
11395;BME280;5753;54.402;10.220;2022-07-30T16:59:36;101699.72;;;45.48;16.79
11395;BME280;5753;54.402;10.220;2022-07-30T17:02:03;101705.88;;;45.19;16.83
11395;BME280;5753;54.402;10.220;2022-07-30T17:04:29;101701.78;;;45.46;16.55
11395;BME280;5753;54.402;10.220;2022-07-30T17:06:55;101702.47;;;44.64;16.89
11395;BME280;5753;54.402;10.220;2022-07-30T17:09:21;101702.72;;;44.38;17.17
11395;BME280;5753;54.402;10.220;2022-07-30T17:11:47;101708.66;;;45.57;16.14
11395;BME280;5753;54.402;10.220;2022-07-30T17:14:14;101708.19;;;45.08;16.37
11395;BME280;5753;54.402;10.220;2022-07-30T17:16:40;101699.00;;;44.47;16.77